Terminal Aerodrome Forecast
Issued by NWS

Home | Current Version | Previous Version | Text Only | Print | Product List | Glossary On
Versions: 1 2 3 4 5 6 7 8 9 10 11 12 13 14 15 16 17 18 19 20
000
FTUS43 KMQT 290520
TAFCMX
TAF
KCMX 290520Z 2906/3006 19009KT P6SM SCT150 WS010/20035KT
     FM291300 20008KT P6SM OVC090
      TEMPO 2914/2918 6SM -SHRA OVC030
     FM291800 20004KT 4SM -RA BR OVC024
     FM292000 29007KT 5SM -RA BR OVC018
     FM292300 35008KT 3SM -RA BR OVC008
     FM300100 36008KT 5SM BR OVC012
     FM300400 36009KT P6SM BKN035=

USA.gov is the U.S. government's official web portal to all federal, state and local government web resources and services.